Ilgaz — TCHQ — position and weather

sailwx.info

Track history (hours):
 
Tides and Currents Weather Stations Pressure Air Temp Water Temp Dewpoint Dewpoint Depression Visibility Wind Speed Wind Dir Waves Ship Positions

Ilgaz

Last reported at 2014-Aug-17 01:28 UTC. Time now 2014-Aug-22 08:00 UTC.
Position N 40°50' E 028°08'.

Length 124 m; draft 7.2 m.

Type: Cargo ship. MMSI: 271000215.

Date/timePositionNaut miles runAvg speedWind from/ knotsBaromVisibWave heightAir tempDewpointWater temp
2014-Aug-17 01:28N 40°50' E 028°08'17 8.5
2014-Aug-16 23:31N 40°52' E 028°30'8 8.3
2014-Aug-16 22:32N 40°54' E 028°40'8 8.3
2014-Aug-16 21:32N 40°55' E 028°51'5 5.0
2014-Aug-16 20:33N 40°58' E 028°56'0 0.0
2014-Aug-16 18:32N 40°58' E 028°56'0 0.1
2014-Aug-16 15:33N 40°58' E 028°56'24 8.0
2014-Aug-16 12:31N 41°20' E 029°10'3 1.8
2014-Aug-16 10:33N 41°23' E 029°12'0 0.4
2014-Aug-16 09:19N 41°23' E 029°11'0 0.3
2014-Aug-16 08:23N 41°23' E 029°11'0 0.3
2014-Aug-16 07:33N 41°23' E 029°10'23 3.1
2014-Aug-16 00:12N 41°45' E 029°19'29 8.0
2014-Aug-15 20:32N 42°13' E 029°31'8 8.6
2014-Aug-15 19:33N 42°21' E 029°33'9 8.5
2014-Aug-15 18:33N 42°29' E 029°36'36 8.6
2014-Aug-15 14:24N 43°04' E 029°49'119 8.6
2014-Aug-15 00:30N 44°58' E 030°35'8 8.5
2014-Aug-14 23:33N 45°06' E 030°38'8 8.4
2014-Aug-14 22:33N 45°14' E 030°41'8 8.3
2014-Aug-14 21:33N 45°22' E 030°44'9 8.8
2014-Aug-14 20:33N 45°31' E 030°48'9 8.6
2014-Aug-14 19:33N 45°39' E 030°51'8 8.3
2014-Aug-14 18:33N 45°47' E 030°55'8 8.2
2014-Aug-14 17:33N 45°55' E 030°58'9 8.3
2014-Aug-14 16:31N 46°03' E 031°02'10 7.3
2014-Aug-14 15:11N 46°12' E 030°57'27 1.2
2014-Aug-13 17:33N 46°39' E 031°01'2 0.3
2014-Aug-13 12:26N 46°37' E 031°01'3 0.4
2014-Aug-13 04:32N 46°35' E 031°04'0 0.0
2014-Aug-13 03:29N 46°35' E 031°04'0 0.0
2014-Aug-13 02:32N 46°35' E 031°04'0 0.0
2014-Aug-13 01:29N 46°35' E 031°04'0 0.0
2014-Aug-13 00:32N 46°35' E 031°04'0 0.0
2014-Aug-12 23:32N 46°35' E 031°04'0 0.0
2014-Aug-12 22:32N 46°35' E 031°04'0 0.0
2014-Aug-12 21:32N 46°35' E 031°04'0 0.0
2014-Aug-12 20:32N 46°35' E 031°04'0 0.0
2014-Aug-12 19:32N 46°35' E 031°04'0 0.0
2014-Aug-12 18:32N 46°35' E 031°04'0 0.0
2014-Aug-12 17:32N 46°35' E 031°04'0 0.0
2014-Aug-12 16:29N 46°35' E 031°04'0 0.0
2014-Aug-12 15:29N 46°35' E 031°04'0 0.0
2014-Aug-11 18:29N 46°35' E 031°04'0 0.0
2014-Aug-11 17:29N 46°35' E 031°04'0 0.0
2014-Aug-10 23:29N 46°35' E 031°04'31 5.2
2014-Aug-10 17:31N 46°04' E 031°11'320 8.6
2014-Aug-09 04:33N 40°59' E 028°60'6 6.0
2014-Aug-09 03:33N 40°53' E 029°00'7 6.8
2014-Aug-09 02:33N 40°50' E 029°08'2 1.5
2014-Aug-09 01:09N 40°51' E 029°11'0 0.0
2014-Aug-09 00:15N 40°51' E 029°11'0 0.0
2014-Aug-08 23:33N 40°51' E 029°11'0 0.0
2014-Aug-08 22:09N 40°51' E 029°11'0 0.1
2014-Aug-08 21:27N 40°51' E 029°11'0 0.0
2014-Aug-08 20:33N 40°51' E 029°11'0 0.1
2014-Aug-08 19:27N 40°51' E 029°11'0 0.0
2014-Aug-08 18:33N 40°51' E 029°11'0 0.0
2014-Aug-08 17:33N 40°51' E 029°11'0 0.1
2014-Aug-08 16:21N 40°51' E 029°11'0 0.1
2014-Aug-08 15:33N 40°51' E 029°11'0 0.0
2014-Aug-08 14:33N 40°51' E 029°11'0 0.0
2014-Aug-08 13:33N 40°51' E 029°11'0 0.1
2014-Aug-08 12:33N 40°51' E 029°11'0 0.0
2014-Aug-08 11:33N 40°51' E 029°11'0 0.1
2014-Aug-08 09:27N 40°51' E 029°11'0 0.1
2014-Aug-08 08:33N 40°51' E 029°11'0 0.0
2014-Aug-08 07:33N 40°51' E 029°11'0 0.0
2014-Aug-07 15:12N 40°51' E 029°11'0 0.1
2014-Aug-07 14:18N 40°51' E 029°11'0 0.0
2014-Aug-07 13:30N 40°51' E 029°11'0 0.4
2014-Aug-07 12:24N 40°51' E 029°10'0 0.0
2014-Aug-07 11:30N 40°51' E 029°10'0 0.0
2014-Aug-07 10:18N 40°51' E 029°10'0 0.0
2014-Aug-07 09:30N 40°51' E 029°10'0 0.0
2014-Aug-07 07:30N 40°51' E 029°10'0 0.0
2014-Aug-07 06:18N 40°51' E 029°10'0 0.0
2014-Aug-07 05:30N 40°51' E 029°10'0 0.0
2014-Aug-07 04:18N 40°51' E 029°10'0 0.1
2014-Aug-07 03:30N 40°51' E 029°10'0 0.0
2014-Aug-07 01:30N 40°51' E 029°10'  
Track history (hours):
 
Tides and Currents Weather Stations Pressure Air Temp Water Temp Dewpoint Dewpoint Depression Visibility Wind Speed Wind Dir Waves Ship Positions

Ilgaz

Last reported at 2014-Aug-17 01:28 UTC. Time now 2014-Aug-22 08:00 UTC.
Position N 40°50' E 028°08'.

Length 124 m; draft 7.2 m.

Type: Cargo ship. MMSI: 271000215.

Date/timePositionNaut miles runAvg speedWind from/ knotsBaromVisibWave heightAir tempDewpointWater temp
2014-Aug-17 01:28N 40°50' E 028°08'17 8.5
2014-Aug-16 23:31N 40°52' E 028°30'8 8.3
2014-Aug-16 22:32N 40°54' E 028°40'8 8.3
2014-Aug-16 21:32N 40°55' E 028°51'5 5.0
2014-Aug-16 20:33N 40°58' E 028°56'0 0.0
2014-Aug-16 18:32N 40°58' E 028°56'0 0.1
2014-Aug-16 15:33N 40°58' E 028°56'24 8.0
2014-Aug-16 12:31N 41°20' E 029°10'3 1.8
2014-Aug-16 10:33N 41°23' E 029°12'0 0.4
2014-Aug-16 09:19N 41°23' E 029°11'0 0.3
2014-Aug-16 08:23N 41°23' E 029°11'0 0.3
2014-Aug-16 07:33N 41°23' E 029°10'23 3.1
2014-Aug-16 00:12N 41°45' E 029°19'29 8.0
2014-Aug-15 20:32N 42°13' E 029°31'8 8.6
2014-Aug-15 19:33N 42°21' E 029°33'9 8.5
2014-Aug-15 18:33N 42°29' E 029°36'36 8.6
2014-Aug-15 14:24N 43°04' E 029°49'119 8.6
2014-Aug-15 00:30N 44°58' E 030°35'8 8.5
2014-Aug-14 23:33N 45°06' E 030°38'8 8.4
2014-Aug-14 22:33N 45°14' E 030°41'8 8.3
2014-Aug-14 21:33N 45°22' E 030°44'9 8.8
2014-Aug-14 20:33N 45°31' E 030°48'9 8.6
2014-Aug-14 19:33N 45°39' E 030°51'8 8.3
2014-Aug-14 18:33N 45°47' E 030°55'8 8.2
2014-Aug-14 17:33N 45°55' E 030°58'9 8.3
2014-Aug-14 16:31N 46°03' E 031°02'10 7.3
2014-Aug-14 15:11N 46°12' E 030°57'27 1.2
2014-Aug-13 17:33N 46°39' E 031°01'2 0.3
2014-Aug-13 12:26N 46°37' E 031°01'3 0.4
2014-Aug-13 04:32N 46°35' E 031°04'0 0.0
2014-Aug-13 03:29N 46°35' E 031°04'0 0.0
2014-Aug-13 02:32N 46°35' E 031°04'0 0.0
2014-Aug-13 01:29N 46°35' E 031°04'0 0.0
2014-Aug-13 00:32N 46°35' E 031°04'0 0.0
2014-Aug-12 23:32N 46°35' E 031°04'0 0.0
2014-Aug-12 22:32N 46°35' E 031°04'0 0.0
2014-Aug-12 21:32N 46°35' E 031°04'0 0.0
2014-Aug-12 20:32N 46°35' E 031°04'0 0.0
2014-Aug-12 19:32N 46°35' E 031°04'0 0.0
2014-Aug-12 18:32N 46°35' E 031°04'0 0.0
2014-Aug-12 17:32N 46°35' E 031°04'0 0.0
2014-Aug-12 16:29N 46°35' E 031°04'0 0.0
2014-Aug-12 15:29N 46°35' E 031°04'0 0.0
2014-Aug-11 18:29N 46°35' E 031°04'0 0.0
2014-Aug-11 17:29N 46°35' E 031°04'0 0.0
2014-Aug-10 23:29N 46°35' E 031°04'31 5.2
2014-Aug-10 17:31N 46°04' E 031°11'320 8.6
2014-Aug-09 04:33N 40°59' E 028°60'6 6.0
2014-Aug-09 03:33N 40°53' E 029°00'7 6.8
2014-Aug-09 02:33N 40°50' E 029°08'2 1.5
2014-Aug-09 01:09N 40°51' E 029°11'0 0.0
2014-Aug-09 00:15N 40°51' E 029°11'0 0.0
2014-Aug-08 23:33N 40°51' E 029°11'0 0.0
2014-Aug-08 22:09N 40°51' E 029°11'0 0.1
2014-Aug-08 21:27N 40°51' E 029°11'0 0.0
2014-Aug-08 20:33N 40°51' E 029°11'0 0.1
2014-Aug-08 19:27N 40°51' E 029°11'0 0.0
2014-Aug-08 18:33N 40°51' E 029°11'0 0.0
2014-Aug-08 17:33N 40°51' E 029°11'0 0.1
2014-Aug-08 16:21N 40°51' E 029°11'0 0.1
2014-Aug-08 15:33N 40°51' E 029°11'0 0.0
2014-Aug-08 14:33N 40°51' E 029°11'0 0.0
2014-Aug-08 13:33N 40°51' E 029°11'0 0.1
2014-Aug-08 12:33N 40°51' E 029°11'0 0.0
2014-Aug-08 11:33N 40°51' E 029°11'0 0.1
2014-Aug-08 09:27N 40°51' E 029°11'0 0.1
2014-Aug-08 08:33N 40°51' E 029°11'0 0.0
2014-Aug-08 07:33N 40°51' E 029°11'0 0.0
2014-Aug-07 15:12N 40°51' E 029°11'0 0.1
2014-Aug-07 14:18N 40°51' E 029°11'0 0.0
2014-Aug-07 13:30N 40°51' E 029°11'0 0.4
2014-Aug-07 12:24N 40°51' E 029°10'0 0.0
2014-Aug-07 11:30N 40°51' E 029°10'0 0.0
2014-Aug-07 10:18N 40°51' E 029°10'0 0.0
2014-Aug-07 09:30N 40°51' E 029°10'0 0.0
2014-Aug-07 07:30N 40°51' E 029°10'0 0.0
2014-Aug-07 06:18N 40°51' E 029°10'0 0.0
2014-Aug-07 05:30N 40°51' E 029°10'0 0.0
2014-Aug-07 04:18N 40°51' E 029°10'0 0.1
2014-Aug-07 03:30N 40°51' E 029°10'0 0.0
2014-Aug-07 01:30N 40°51' E 029°10'  

Dump ship's entire track history